Aviation Digital Data Service (ADDS)

Output produced by METARs form (2323 UTC 03 September 2015)
found at http://www.aviationweather.gov/adds/metars/
 
KUNV 032253Z 31006KT 10SM SKC 25/19 A2995
KUNV 032153Z COR VRB05KT 7SM SCT040 26/20 A2992
KUNV 032053Z 30004KT 10SM SKC 30/18 A2993
KUNV 031953Z 30003KT 10SM SKC 30/19 A2993
KUNV 031853Z 00000KT 10SM SCT046 SCT050 30/18 A2995 RMK LTG DIST NE
KUNV 031753Z 00000KT 10SM SKC 29/19 A2996
KUNV 031653Z 34004KT 10SM SKC 29/19 A2998
KUNV 031553Z 00000KT 10SM SKC 28/20 A2999
KUNV 031453Z 00000KT 7SM SCT050 26/20 A3000
KUNV 031353Z 00000KT 7SM SKC 24/20 A3000
KUNV 031253Z 25004KT 7SM SKC 22/20 A3000
KUNV 031153Z 00000KT 7SM SKC 19/19 A2999
KUNV 031053Z 00000KT 7SM SKC 18/18 A2998
KUNV 030953Z 00000KT 7SM SKC 19/18 A2997
KUNV 030935Z AUTO 00000KT 3SM BR SCT038 BKN044 OVC075 19/18 A2998 RMK AO2 T01850179
KUNV 030915Z AUTO 00000KT 3SM BR BKN047 BKN060 OVC100 19/18 A2997 RMK AO2 T01860181
KUNV 030855Z AUTO 00000KT 7SM SCT045 SCT060 BKN080 19/18 A2997 RMK AO2 T01910181
KUNV 030835Z AUTO 00000KT 5SM BR SCT040 BKN046 BKN070 19/18 A2997 RMK AO2 T01900183
KUNV 030815Z AUTO 00000KT 5SM BR SCT040 SCT075 19/18 A2997 RMK AO2 T01900181
KUNV 030755Z AUTO 00000KT 5SM BR CLR 19/18 A2997 RMK AO2 T01880181
KUNV 030735Z AUTO 00000KT 5SM BR SCT070 SCT080 19/18 A2997 RMK AO2 T01910183
KUNV 030715Z AUTO 00000KT 5SM BR SCT070 SCT080 19/18 A2997 RMK AO2 T01900182
KUNV 030655Z AUTO 00000KT 5SM BR SCT060 SCT070 19/19 A2997 RMK AO2 T01940186
KUNV 030635Z AUTO 00000KT 7SM SCT060 SCT080 20/19 A2997 RMK AO2 T01990186
KUNV 030615Z AUTO 00000KT 7SM SCT070 SCT090 SCT110 20/19 A2998 RMK AO2 T01950185
KUNV 030555Z AUTO 22003KT 7SM CLR 20/19 A2998 RMK AO2 T01950185 10230 20195
KUNV 030535Z AUTO 22003KT 7SM SCT085 SCT110 20/19 A2998 RMK AO2 T01960186
KUNV 030515Z AUTO 00000KT 7SM SCT055 SCT065 BKN085 20/19 A2999 RMK AO2 T01990189
KUNV 030455Z AUTO 00000KT 7SM SCT060 SCT080 SCT100 20/19 A2999 RMK AO2 T02000190
KUNV 030435Z AUTO 00000KT 7SM SCT100 20/19 A2999 RMK AO2 T01980188
KUNV 030415Z AUTO 00000KT 7SM CLR 21/19 A2999 RMK AO2 T02060192
KUNV 030355Z AUTO 00000KT 7SM CLR 21/19 A2999 RMK AO2 T02050192 403110175
KUNV 030335Z AUTO 18004KT 7SM CLR 20/19 A2999 RMK AO2 T02030191
KUNV 030315Z AUTO 00000KT 7SM SCT080 20/19 A3000 RMK AO2 T02020192
KUNV 030255Z AUTO 21003KT 10SM SCT080 21/19 A3000 RMK AO2 T02080193
KUNV 030235Z AUTO 00000KT 10SM CLR 21/20 A3000 RMK AO2 T02120196
KUNV 030215Z AUTO 00000KT 7SM CLR 21/20 A3000 RMK AO2 T02100195
KUNV 030053Z 00000KT 10SM SKC 22/19 A2998
KUNV 022353Z 00000KT 8SM SCT035 23/18 A2999 RMK TSB06E45
KUNV 022253Z 27007KT 8SM SCT060 25/19 A2998 RMK TSB53E2230
KUNV 022153Z COR 27013G20KT 4SM RA SCT060 28/20 A2998 RMK TSB53 OCNL LTGCG VC
KUNV 022053Z 00000KT 8SM SCT060 30/18 A2998
KUNV 021953Z 32010KT 7SM SCT060 31/19 A2999
KUNV 021853Z 33006KT 7SM SCT050 30/19 A3001
KUNV 021753Z 00000KT 7SM SCT040 30/18 A3003
KUNV 021653Z 00000KT 7SM SCT040 29/19 A3007
KUNV 021553Z 00000KT 7SM FEW040 27/20 A3009
KUNV 021453Z 00000KT 7SM SKC 25/19 A3010
KUNV 021353Z 00000KT 7SM SKC 23/20 A3010
KUNV 021253Z 00000KT 6SM BR SKC 20/19 A3012
KUNV 021153Z 00000KT 5SM BR SKC 18/17 A3012